Dzaoudzi, Comoros
Current Conditions -  °F | °C
As of 8:00 PM on Saturday 20 Dec 2014 (Local Time) from FMCZ Reporting Station
Clear Clear  
Wind Chill: 82°   Ceiling: Unl
Heat Index: 89°   Visibility: 6mi
Dew Point: 75°   Wind: 8mph
Humidity: 79%   Direction: 340°NNW
Pressure: 29.88"   Gusts: NA
Location:  12.8°S, 45.28°E
Report Text: FMCZ 201700Z AUTO 34007KT 300V360 9999 NCD 28/24 Q1012
Loading
Personal Weather Stations






























Interactive Weather Map New forecast layout! Learn more

10-Day Weather Forecast

Advertisements
Track Severe Weather on mobile